createdAt,value
2022-08-18T00:01:05.587Z,18.13
2022-08-18T00:03:53.521Z,16.10
2022-08-18T00:06:19.803Z,19.85
2022-08-18T00:08:46.239Z,16.58
2022-08-18T00:11:12.866Z,16.58
2022-08-18T00:13:39.315Z,19.02
2022-08-18T00:16:06.019Z,17.33
2022-08-18T00:18:32.422Z,18.85
2022-08-18T00:20:58.856Z,18.13
2022-08-18T00:23:25.272Z,17.63
2022-08-18T00:25:52.269Z,17.50
2022-08-18T00:28:19.327Z,23.33
2022-08-18T00:30:50.184Z,20.92
2022-08-18T00:33:20.501Z,19.58
2022-08-18T00:35:46.972Z,19.88
2022-08-18T00:38:24.343Z,20.42
2022-08-18T00:40:54.136Z,20.27
2022-08-18T00:43:42.032Z,22.52
2022-08-18T00:46:12.050Z,21.83
2022-08-18T00:48:38.447Z,20.33
2022-08-18T00:51:14.078Z,22.73
2022-08-18T00:53:45.802Z,22.60
2022-08-18T00:56:22.247Z,30.70
2022-08-18T00:59:11.040Z,24.70
2022-08-18T01:01:39.174Z,18.73
2022-08-18T01:04:11.673Z,20.17
2022-08-18T01:06:51.841Z,19.77
2022-08-18T01:09:18.522Z,22.03
2022-08-18T01:11:45.320Z,19.88
2022-08-18T01:14:18.225Z,18.77
2022-08-18T01:17:07.782Z,20.63
2022-08-18T01:19:53.765Z,18.98
2022-08-18T01:22:37.023Z,17.75
2022-08-18T01:25:26.437Z,19.70
2022-08-18T01:27:55.972Z,22.40
2022-08-18T01:30:26.447Z,19.20
2022-08-18T01:32:53.065Z,24.60
2022-08-18T01:35:22.635Z,30.55
2022-08-18T01:37:49.070Z,29.52
2022-08-18T01:41:06.262Z,29.73
2022-08-18T01:43:05.307Z,27.80
2022-08-18T01:45:33.371Z,21.20
2022-08-18T01:48:00.228Z,26.45
2022-08-18T01:50:27.118Z,24.35
2022-08-18T01:52:53.646Z,21.50
2022-08-18T01:55:20.709Z,19.90
2022-08-18T01:57:47.334Z,20.13
2022-08-18T02:00:17.858Z,22.00
2022-08-18T02:02:44.829Z,19.27
2022-08-18T02:05:18.144Z,20.50
2022-08-18T02:07:44.648Z,21.48
2022-08-18T02:10:12.513Z,19.73
2022-08-18T02:12:43.147Z,18.00
2022-08-18T02:15:11.211Z,21.08
2022-08-18T02:17:39.215Z,20.77
2022-08-18T02:20:08.025Z,20.85
2022-08-18T02:22:34.703Z,18.15
2022-08-18T02:25:01.117Z,22.15
2022-08-18T02:27:28.525Z,22.88
2022-08-18T02:29:56.213Z,18.75
2022-08-18T02:32:22.635Z,22.67
2022-08-18T02:34:50.499Z,18.23
2022-08-18T02:37:17.010Z,19.10
2022-08-18T02:39:43.834Z,21.33
2022-08-18T02:42:10.276Z,19.98
2022-08-18T02:44:36.724Z,18.95
2022-08-18T02:47:03.416Z,23.77
2022-08-18T02:49:29.858Z,20.58
2022-08-18T02:51:56.259Z,20.40
2022-08-18T02:54:23.786Z,20.70
2022-08-18T02:56:52.543Z,19.20
2022-08-18T02:59:23.083Z,18.98
2022-08-18T03:01:51.946Z,19.42
2022-08-18T03:04:29.618Z,18.85
2022-08-18T03:06:59.108Z,18.50
2022-08-18T03:09:25.592Z,19.35
2022-08-18T03:11:53.400Z,21.52
2022-08-18T03:14:19.894Z,20.90
2022-08-18T03:16:53.159Z,21.35
2022-08-18T03:19:22.735Z,21.02
2022-08-18T03:21:49.224Z,19.85
2022-08-18T03:24:22.941Z,22.60
2022-08-18T03:26:51.898Z,23.80
2022-08-18T03:29:19.408Z,22.50
2022-08-18T03:31:48.425Z,20.58
2022-08-18T03:34:16.197Z,19.65
2022-08-18T03:36:42.599Z,21.55
2022-08-18T03:39:11.821Z,22.48
2022-08-18T03:41:58.868Z,21.35
2022-08-18T03:44:33.361Z,20.08
2022-08-18T03:47:02.693Z,20.80
2022-08-18T03:49:29.323Z,22.35
2022-08-18T03:51:56.123Z,20.98
2022-08-18T03:54:22.849Z,20.52
2022-08-18T03:56:49.757Z,25.95
2022-08-18T03:59:20.215Z,20.52
2022-08-18T04:01:49.085Z,19.30
2022-08-18T04:04:19.132Z,20.35
2022-08-18T04:06:53.818Z,22.88
2022-08-18T04:09:21.145Z,23.13
2022-08-18T04:11:48.950Z,21.08
2022-08-18T04:14:18.933Z,20.52
2022-08-18T04:16:46.570Z,20.35
2022-08-18T04:19:14.077Z,19.33
2022-08-18T04:21:52.501Z,20.60
2022-08-18T04:24:18.995Z,20.67
2022-08-18T04:26:47.737Z,18.63
2022-08-18T04:29:16.791Z,19.85
2022-08-18T04:31:43.692Z,20.25
2022-08-18T04:34:10.372Z,18.60
2022-08-18T04:36:37.141Z,24.45
2022-08-18T04:39:07.024Z,23.33
2022-08-18T04:41:34.458Z,22.33
2022-08-18T04:44:04.123Z,24.33
2022-08-18T04:46:35.267Z,23.48
2022-08-18T04:49:01.736Z,31.80
2022-08-18T04:52:27.043Z,35.33
2022-08-18T04:54:16.561Z,50.55
2022-08-18T04:56:43.433Z,40.72
2022-08-18T04:59:12.369Z,31.42
2022-08-18T05:01:45.731Z,26.55
2022-08-18T05:04:14.188Z,31.45
2022-08-18T05:06:43.437Z,26.40
2022-08-18T05:09:12.740Z,35.67
2022-08-18T05:11:44.428Z,51.30
2022-08-18T05:14:11.224Z,52.08
2022-08-18T05:16:48.127Z,39.78
2022-08-18T05:19:19.727Z,43.65
2022-08-18T05:21:50.765Z,36.85
2022-08-18T05:24:19.074Z,56.75
2022-08-18T05:26:45.858Z,78.82
2022-08-18T05:29:18.905Z,59.50
2022-08-18T05:31:47.528Z,67.38
2022-08-18T05:34:14.025Z,54.58
2022-08-18T05:36:46.507Z,67.10
2022-08-18T05:39:21.877Z,39.63
2022-08-18T05:42:06.067Z,58.67
2022-08-18T05:44:37.174Z,77.05
2022-08-18T05:47:10.236Z,49.03
2022-08-18T05:49:37.498Z,56.15
2022-08-18T05:52:14.868Z,46.40
2022-08-18T05:55:07.159Z,33.78
2022-08-18T05:57:42.743Z,36.67
2022-08-18T06:00:10.991Z,32.97
2022-08-18T06:02:47.913Z,38.33
2022-08-18T06:05:53.611Z,28.90
2022-08-18T06:08:25.536Z,42.95
2022-08-18T06:10:51.916Z,30.13
2022-08-18T06:13:20.504Z,30.17
2022-08-18T06:16:01.296Z,29.13
2022-08-18T06:18:47.135Z,29.40
2022-08-18T06:21:50.815Z,27.40
2022-08-18T06:24:31.279Z,27.10
2022-08-18T06:27:10.583Z,35.58
2022-08-18T06:29:58.661Z,51.13
2022-08-18T06:32:47.174Z,45.70
2022-08-18T06:35:28.658Z,53.92
2022-08-18T06:38:38.838Z,39.10
2022-08-18T06:41:40.971Z,44.35
2022-08-18T06:44:01.673Z,42.72
2022-08-18T06:46:56.119Z,29.60
2022-08-18T06:49:48.406Z,29.08
2022-08-18T06:52:29.057Z,37.47
2022-08-18T06:55:13.851Z,32.83
2022-08-18T06:57:54.919Z,30.17
2022-08-18T07:02:56.421Z,35.15
2022-08-18T07:05:30.222Z,29.83
2022-08-18T07:08:21.226Z,28.25
2022-08-18T07:10:51.378Z,26.38
2022-08-18T07:13:26.750Z,26.53
2022-08-18T07:16:56.537Z,27.48
2022-08-18T07:19:20.633Z,30.15
2022-08-18T07:22:02.161Z,27.98
2022-08-18T07:24:56.252Z,27.85
2022-08-18T07:27:41.407Z,31.35
2022-08-18T07:30:32.297Z,28.02
2022-08-18T07:33:04.866Z,32.88
2022-08-18T07:35:57.318Z,29.88
2022-08-18T07:38:46.774Z,31.80
2022-08-18T07:41:49.018Z,29.40
2022-08-18T07:44:25.141Z,28.77
2022-08-18T07:47:03.800Z,30.83
2022-08-18T07:49:36.135Z,33.78
2022-08-18T07:52:22.588Z,28.60
2022-08-18T07:55:17.801Z,28.85
2022-08-18T07:58:04.990Z,32.53
2022-08-18T08:00:58.730Z,31.85
2022-08-18T08:03:31.940Z,29.92
2022-08-18T08:06:12.493Z,29.25
2022-08-18T08:09:06.595Z,28.48
2022-08-18T08:11:50.053Z,35.30
2022-08-18T08:14:41.300Z,35.30
2022-08-18T08:17:13.732Z,28.45
2022-08-18T08:20:12.329Z,32.95
2022-08-18T08:23:04.543Z,38.67
2022-08-18T08:25:46.403Z,33.88
2022-08-18T08:28:22.988Z,35.50
2022-08-18T08:34:16.973Z,42.60
2022-08-18T08:36:46.623Z,41.22
2022-08-18T08:39:25.966Z,47.10
2022-08-18T08:42:31.714Z,41.42
2022-08-18T08:45:01.009Z,44.25
2022-08-18T08:47:36.525Z,43.65
2022-08-18T08:50:08.887Z,57.42
2022-08-18T08:52:47.658Z,53.80
2022-08-18T08:55:21.479Z,50.67
2022-08-18T08:57:53.869Z,49.90
2022-08-18T09:00:21.115Z,48.80
2022-08-18T09:03:00.608Z,49.63
2022-08-18T09:05:37.433Z,53.58
2022-08-18T09:08:34.539Z,51.10
2022-08-18T09:11:10.676Z,57.42
2022-08-18T09:14:12.321Z,53.75
2022-08-18T09:17:10.889Z,52.45
2022-08-18T09:19:56.493Z,54.47
2022-08-18T09:22:47.779Z,56.15
2022-08-18T09:25:50.063Z,55.38
2022-08-18T09:28:29.985Z,52.03
2022-08-18T09:31:08.915Z,56.92
2022-08-18T09:33:42.331Z,52.50
2022-08-18T09:36:36.057Z,62.90
2022-08-18T09:39:36.499Z,56.42
2022-08-18T09:42:11.936Z,58.30
2022-08-18T09:44:42.859Z,53.28
